Time;durP1;ratioP1;P1;durP2;ratioP2;P2;SDS_P1;SDS_P2;PMS_P1;PMS_P2;Temp;Humidity;BMP_temperature;BMP_pressure;BME280_temperature;BME280_humidity;BME280_pressure;Samples;Min_cycle;Max_cycle;Signal;HPM_P1;HPM_P2
2023/06/09 00:00:46;;;;;;;6.43;4.38;;;;;;;;;;5034752;28;20042;-61
2023/06/09 00:03:12;;;;;;;7.00;4.60;;;;;;;;;;5034974;28;20586;-61
2023/06/09 00:05:40;;;;;;;7.60;4.80;;;;;;;;;;5034890;28;20103;-61
2023/06/09 00:08:07;;;;;;;7.00;4.85;;;;;;;;;;5034604;28;20423;-61
2023/06/09 00:10:34;;;;;;;7.25;4.97;;;;;;;;;;5034552;28;20053;-61
2023/06/09 00:13:02;;;;;;;7.50;5.07;;;;;;;;;;5034817;28;20132;-62
2023/06/09 00:15:29;;;;;;;5.95;4.50;;;;;;;;;;5034661;28;20060;-60
2023/06/09 00:17:56;;;;;;;6.10;4.47;;;;;;;;;;5034295;28;20041;-61
2023/06/09 00:20:25;;;;;;;5.90;4.28;;;;;;;;;;5034269;28;20107;-60
2023/06/09 00:22:55;;;;;;;6.03;4.10;;;;;;;;;;5033019;28;20441;-61
2023/06/09 00:25:24;;;;;;;6.78;4.20;;;;;;;;;;5034634;28;20155;-60
2023/06/09 00:27:51;;;;;;;5.88;3.92;;;;;;;;;;5034494;28;20514;-60
2023/06/09 00:30:22;;;;;;;6.10;4.22;;;;;;;;;;5034240;28;20053;-60
2023/06/09 00:32:48;;;;;;;5.60;4.00;;;;;;;;;;5034349;28;20051;-61
2023/06/09 00:35:15;;;;;;;7.60;4.75;;;;;;;;;;5034312;28;20054;-59
2023/06/09 00:37:42;;;;;;;6.53;4.63;;;;;;;;;;5034216;28;20103;-62
2023/06/09 00:40:12;;;;;;;6.05;4.28;;;;;;;;;;5033970;28;20057;-62
2023/06/09 00:42:39;;;;;;;5.95;4.15;;;;;;;;;;5034432;28;20046;-62
2023/06/09 00:45:07;;;;;;;7.30;4.82;;;;;;;;;;5033903;28;20050;-63
2023/06/09 00:47:36;;;;;;;6.10;4.22;;;;;;;;;;5033949;28;20100;-61
2023/06/09 00:50:02;;;;;;;6.45;3.97;;;;;;;;;;5033671;28;20052;-62
2023/06/09 00:52:29;;;;;;;6.13;4.03;;;;;;;;;;5034002;28;20041;-62
2023/06/09 00:54:56;;;;;;;5.97;3.97;;;;;;;;;;5034221;28;20057;-61
2023/06/09 00:57:24;;;;;;;7.32;4.15;;;;;;;;;;5034051;28;20049;-62
2023/06/09 00:59:51;;;;;;;7.20;4.93;;;;;;;;;;5034036;28;20061;-63
2023/06/09 01:02:17;;;;;;;5.80;4.32;;;;;;;;;;5034573;28;20084;-61
2023/06/09 01:04:49;;;;;;;7.15;4.38;;;;;;;;;;5014252;28;20042;-62
2023/06/09 01:07:28;;;;;;;6.38;4.60;;;;;;;;;;5013940;28;20124;-63
2023/06/09 01:10:02;;;;;;;6.87;4.53;;;;;;;;;;5014301;28;20053;-63
2023/06/09 01:12:35;;;;;;;6.10;4.35;;;;;;;;;;5013612;28;20054;-62
2023/06/09 01:15:06;;;;;;;6.38;4.32;;;;;;;;;;5013734;28;20057;-60
2023/06/09 01:17:36;;;;;;;6.22;4.30;;;;;;;;;;5013420;28;20064;-60
2023/06/09 01:20:07;;;;;;;6.22;4.28;;;;;;;;;;5013513;28;20526;-61
2023/06/09 01:22:44;;;;;;;6.15;4.35;;;;;;;;;;5013376;28;20042;-61
2023/06/09 01:25:35;;;;;;;6.75;4.65;;;;;;;;;;5013610;28;20054;-61
2023/06/09 01:28:05;;;;;;;6.20;4.13;;;;;;;;;;5011311;28;20128;-62
2023/06/09 01:30:33;;;;;;;;;;;;;;;;;;5013721;28;20046;-62
2023/06/09 01:33:04;;;;;;;7.05;4.20;;;;;;;;;;5012752;28;20003;-62
2023/06/09 01:35:32;;;;;;;6.45;3.88;;;;;;;;;;5013412;28;20089;-62
2023/06/09 01:37:59;;;;;;;5.90;3.88;;;;;;;;;;5013164;28;20062;-60
2023/06/09 01:40:27;;;;;;;6.78;4.60;;;;;;;;;;5013293;28;20527;-63
2023/06/09 01:42:59;;;;;;;6.82;4.38;;;;;;;;;;5013171;28;20076;-63
2023/06/09 01:45:26;;;;;;;6.18;4.35;;;;;;;;;;5013403;28;20056;-62
2023/06/09 01:47:53;;;;;;;5.72;3.90;;;;;;;;;;5013472;28;20398;-62
2023/06/09 01:50:29;;;;;;;6.55;4.05;;;;;;;;;;5012709;28;20515;-62
2023/06/09 01:53:05;;;;;;;8.10;4.38;;;;;;;;;;5013089;28;20050;-62
2023/06/09 01:55:38;;;;;;;6.97;4.72;;;;;;;;;;5013177;28;20085;-61
2023/06/09 01:58:13;;;;;;;6.85;4.78;;;;;;;;;;5012989;28;20517;-62
2023/06/09 02:00:43;;;;;;;6.95;4.47;;;;;;;;;;5012711;28;20045;-62
2023/06/09 02:03:12;;;;;;;6.78;4.93;;;;;;;;;;5020006;28;20544;-62
2023/06/09 02:05:42;;;;;;;6.88;4.65;;;;;;;;;;5032563;28;20045;-62
2023/06/09 02:08:09;;;;;;;6.50;4.65;;;;;;;;;;5032612;28;20054;-61
2023/06/09 02:10:37;;;;;;;6.32;4.70;;;;;;;;;;5032378;28;20042;-62
2023/06/09 02:13:14;;;;;;;6.97;4.30;;;;;;;;;;5032412;28;20096;-62
2023/06/09 02:15:42;;;;;;;6.90;4.25;;;;;;;;;;5032338;28;20056;-62
2023/06/09 02:18:11;;;;;;;6.32;4.05;;;;;;;;;;5032009;28;20049;-61
2023/06/09 02:20:39;;;;;;;6.60;4.45;;;;;;;;;;5032274;28;20100;-62
2023/06/09 02:23:06;;;;;;;6.28;4.60;;;;;;;;;;5032407;28;20076;-62
2023/06/09 02:25:33;;;;;;;6.07;4.68;;;;;;;;;;5032284;28;20395;-61
2023/06/09 02:28:02;;;;;;;7.63;5.30;;;;;;;;;;5032190;28;20057;-61
2023/06/09 02:30:30;;;;;;;6.50;4.75;;;;;;;;;;5031947;28;20054;-62
2023/06/09 02:36:19;;;;;;;6.72;5.20;;;;;;;;;;5029933;28;20045;-62
2023/06/09 02:38:45;;;;;;;7.00;4.88;;;;;;;;;;5031587;28;20437;-62
2023/06/09 02:41:12;;;;;;;9.05;5.70;;;;;;;;;;5031627;28;20111;-62
2023/06/09 02:43:39;;;;;;;6.95;5.13;;;;;;;;;;5031737;28;20391;-61
2023/06/09 02:46:09;;;;;;;8.50;6.10;;;;;;;;;;5031102;28;20061;-62
2023/06/09 02:48:35;;;;;;;8.60;6.23;;;;;;;;;;5031702;28;20050;-62
2023/06/09 02:51:03;;;;;;;8.90;5.75;;;;;;;;;;5031865;28;20046;-61
2023/06/09 02:53:30;;;;;;;9.02;5.68;;;;;;;;;;5031969;28;20414;-62
2023/06/09 02:55:57;;;;;;;9.20;6.30;;;;;;;;;;5031846;28;20061;-62
2023/06/09 02:58:24;;;;;;;8.10;5.80;;;;;;;;;;5031677;28;20081;-62
2023/06/09 03:00:51;;;;;;;7.45;5.45;;;;;;;;;;5031654;28;20053;-61
2023/06/09 03:03:19;;;;;;;8.20;5.32;;;;;;;;;;5031267;28;20212;-61
2023/06/09 03:05:47;;;;;;;7.53;5.45;;;;;;;;;;5031512;28;20127;-62
2023/06/09 03:08:14;;;;;;;8.60;5.65;;;;;;;;;;5031622;28;20050;-62
2023/06/09 03:10:40;;;;;;;7.47;5.32;;;;;;;;;;5031248;28;20077;-62
2023/06/09 03:13:08;;;;;;;9.23;6.10;;;;;;;;;;5031443;28;20474;-62
2023/06/09 03:15:35;;;;;;;7.70;5.85;;;;;;;;;;5031699;28;20052;-62
2023/06/09 03:18:01;;;;;;;7.72;5.47;;;;;;;;;;5031279;28;20560;-62
2023/06/09 03:20:32;;;;;;;7.97;5.57;;;;;;;;;;5031185;28;20054;-62
2023/06/09 03:22:59;;;;;;;7.55;5.35;;;;;;;;;;5031363;28;20057;-62
2023/06/09 03:25:27;;;;;;;7.53;5.03;;;;;;;;;;5031496;28;20049;-62
2023/06/09 03:27:54;;;;;;;8.43;5.50;;;;;;;;;;5031683;28;20057;-62
2023/06/09 03:30:21;;;;;;;7.85;5.53;;;;;;;;;;5031178;28;20574;-61
2023/06/09 03:32:48;;;;;;;9.57;5.78;;;;;;;;;;5031286;28;20065;-61
2023/06/09 03:35:15;;;;;;;9.35;6.10;;;;;;;;;;5031266;28;20045;-59
2023/06/09 03:37:43;;;;;;;6.88;5.15;;;;;;;;;;5031275;28;20467;-58
2023/06/09 03:40:12;;;;;;;8.35;5.95;;;;;;;;;;5031117;28;20050;-61
2023/06/09 03:42:39;;;;;;;7.78;5.82;;;;;;;;;;5031192;28;20057;-60
2023/06/09 03:45:06;;;;;;;8.18;5.63;;;;;;;;;;5031226;28;20046;-61
2023/06/09 03:47:33;;;;;;;7.80;5.88;;;;;;;;;;5031089;28;20057;-61
2023/06/09 03:50:00;;;;;;;8.60;5.72;;;;;;;;;;5031387;28;20099;-61
2023/06/09 03:52:28;;;;;;;7.78;5.38;;;;;;;;;;5031957;28;20049;-60
2023/06/09 03:54:56;;;;;;;7.63;5.63;;;;;;;;;;5031425;28;20046;-61
2023/06/09 03:57:23;;;;;;;7.43;5.32;;;;;;;;;;5033911;28;20054;-61
2023/06/09 03:59:50;;;;;;;7.38;4.63;;;;;;;;;;5034675;28;20049;-62
2023/06/09 04:02:17;;;;;;;7.50;4.97;;;;;;;;;;5034727;28;20057;-62
2023/06/09 04:04:44;;;;;;;7.63;5.13;;;;;;;;;;5015137;28;20112;-62
2023/06/09 04:07:14;;;;;;;7.43;5.15;;;;;;;;;;5015268;28;20053;-62
2023/06/09 04:09:41;;;;;;;8.70;4.85;;;;;;;;;;5014646;28;20050;-62
2023/06/09 04:12:10;;;;;;;8.13;5.28;;;;;;;;;;5014581;28;20404;-62
2023/06/09 04:14:36;;;;;;;7.63;4.97;;;;;;;;;;5042189;22;20466;-79
2023/06/09 04:17:06;;;;;;;7.32;4.93;;;;;;;;;;5040064;28;20415;-79
2023/06/09 04:19:33;;;;;;;9.38;5.55;;;;;;;;;;5039261;28;20046;-79
2023/06/09 04:22:10;;;;;;;7.70;5.40;;;;;;;;;;5035439;28;20095;-77
2023/06/09 04:24:37;;;;;;;9.40;6.57;;;;;;;;;;5036498;28;20045;-77
2023/06/09 04:27:04;;;;;;;8.07;6.18;;;;;;;;;;5034955;28;20042;-76
2023/06/09 04:29:32;;;;;;;8.27;5.53;;;;;;;;;;5035095;28;20057;-77
2023/06/09 04:31:59;;;;;;;9.20;5.35;;;;;;;;;;5035594;28;20046;-77
2023/06/09 04:34:27;;;;;;;7.25;4.90;;;;;;;;;;5036106;28;20048;-77
2023/06/09 04:36:55;;;;;;;8.77;5.25;;;;;;;;;;5035018;28;20049;-78
2023/06/09 04:39:24;;;;;;;8.18;4.78;;;;;;;;;;5035004;28;20045;-77
2023/06/09 04:41:53;;;;;;;8.18;5.38;;;;;;;;;;5035115;28;20152;-77
2023/06/09 04:44:20;;;;;;;7.15;4.80;;;;;;;;;;5035190;28;20045;-77
2023/06/09 04:46:49;;;;;;;7.53;4.63;;;;;;;;;;5035118;28;20057;-78
2023/06/09 04:49:16;;;;;;;8.55;5.57;;;;;;;;;;5034827;28;20389;-77
2023/06/09 04:51:48;;;;;;;8.80;5.25;;;;;;;;;;5034776;28;20136;-77
2023/06/09 04:54:15;;;;;;;9.15;5.80;;;;;;;;;;5035313;28;20045;-77
2023/06/09 04:56:44;;;;;;;7.60;4.82;;;;;;;;;;5034745;28;20041;-77
2023/06/09 04:59:11;;;;;;;7.53;5.43;;;;;;;;;;5037104;28;20057;-79
2023/06/09 05:01:38;;;;;;;7.03;4.85;;;;;;;;;;5037768;28;20136;-79
2023/06/09 05:04:08;;;;;;;7.72;5.05;;;;;;;;;;5037505;28;20053;-79
2023/06/09 05:06:36;;;;;;;8.13;5.10;;;;;;;;;;5037178;28;20128;-80
2023/06/09 05:09:03;;;;;;;8.45;5.47;;;;;;;;;;5036111;28;20050;-80
2023/06/09 05:11:29;;;;;;;7.22;5.07;;;;;;;;;;5037040;28;20180;-79
2023/06/09 05:13:56;;;;;;;7.55;4.88;;;;;;;;;;5037123;28;20479;-80
2023/06/09 05:16:25;;;;;;;7.93;5.50;;;;;;;;;;5036936;28;20128;-80
2023/06/09 05:18:52;;;;;;;8.33;5.67;;;;;;;;;;5035872;28;20088;-79
2023/06/09 05:21:23;;;;;;;10.65;5.50;;;;;;;;;;5036580;28;20048;-78
2023/06/09 05:23:49;;;;;;;;;;;;;;;;;;5036761;28;20416;-77
2023/06/09 05:26:16;;;;;;;7.90;5.65;;;;;;;;;;5036227;28;19921;-78
2023/06/09 05:28:43;;;;;;;8.88;6.10;;;;;;;;;;5036112;28;20053;-80
2023/06/09 05:31:11;;;;;;;9.63;6.60;;;;;;;;;;5036089;28;20477;-80
2023/06/09 05:33:38;;;;;;;8.63;5.90;;;;;;;;;;5036128;28;20188;-79
2023/06/09 05:36:05;;;;;;;9.20;5.90;;;;;;;;;;5035721;28;20133;-79
2023/06/09 05:38:33;;;;;;;7.38;5.93;;;;;;;;;;5035700;28;20424;-80
2023/06/09 05:41:00;;;;;;;9.60;5.90;;;;;;;;;;5037664;28;20084;-80
2023/06/09 05:43:27;;;;;;;7.45;5.70;;;;;;;;;;5038259;28;20050;-79
2023/06/09 05:45:54;;;;;;;10.00;6.72;;;;;;;;;;5038119;28;20056;-80
2023/06/09 05:48:21;;;;;;;10.00;6.50;;;;;;;;;;5036792;28;20053;-78
2023/06/09 05:50:47;;;;;;;10.68;7.50;;;;;;;;;;5036689;28;20144;-77
2023/06/09 05:53:15;;;;;;;8.07;6.50;;;;;;;;;;5036726;28;20071;-80
2023/06/09 05:55:44;;;;;;;9.25;7.15;;;;;;;;;;5036415;28;20060;-78
2023/06/09 05:58:11;;;;;;;10.52;6.90;;;;;;;;;;5036315;28;20684;-80
2023/06/09 06:00:38;;;;;;;8.02;6.13;;;;;;;;;;5035743;28;20053;-80
2023/06/09 06:03:06;;;;;;;7.97;6.15;;;;;;;;;;5035554;28;20496;-79
2023/06/09 06:05:33;;;;;;;8.48;5.78;;;;;;;;;;5036181;28;20132;-80
2023/06/09 06:08:00;;;;;;;9.77;5.68;;;;;;;;;;5035405;28;20056;-79
2023/06/09 06:10:27;;;;;;;7.38;5.40;;;;;;;;;;5035728;28;20403;-79
2023/06/09 06:12:58;;;;;;;6.93;4.80;;;;;;;;;;5036296;28;20137;-77
2023/06/09 06:15:25;;;;;;;7.28;4.95;;;;;;;;;;5035714;28;20077;-78
2023/06/09 06:17:51;;;;;;;8.43;5.90;;;;;;;;;;5036167;28;20053;-79
2023/06/09 06:20:18;;;;;;;6.45;4.07;;;;;;;;;;5047788;28;20049;-79
2023/06/09 06:22:45;;;;;;;7.50;4.15;;;;;;;;;;5056530;28;20053;-78
2023/06/09 06:25:15;;;;;;;5.85;4.10;;;;;;;;;;5047028;28;20159;-81
2023/06/09 06:27:41;;;;;;;6.50;4.30;;;;;;;;;;5037430;28;20508;-77
2023/06/09 06:30:10;;;;;;;5.57;3.85;;;;;;;;;;5035573;28;20096;-78
2023/06/09 06:32:38;;;;;;;5.75;3.97;;;;;;;;;;5034535;28;20057;-78
2023/06/09 06:35:05;;;;;;;7.60;4.60;;;;;;;;;;5034785;28;20053;-81
2023/06/09 06:37:33;;;;;;;5.97;4.30;;;;;;;;;;5034426;28;20049;-81
2023/06/09 06:39:59;;;;;;;7.03;4.30;;;;;;;;;;5034441;28;20077;-80
2023/06/09 06:42:26;;;;;;;5.93;4.50;;;;;;;;;;5035320;28;20124;-80
2023/06/09 06:44:53;;;;;;;7.18;4.45;;;;;;;;;;5035882;28;20053;-80
2023/06/09 06:47:21;;;;;;;6.60;4.28;;;;;;;;;;5035609;28;20129;-77
2023/06/09 06:49:47;;;;;;;7.45;4.57;;;;;;;;;;5035822;28;20085;-78
2023/06/09 06:52:14;;;;;;;6.80;4.40;;;;;;;;;;5036409;28;20101;-79
2023/06/09 06:54:41;;;;;;;9.10;4.85;;;;;;;;;;5035697;28;20581;-80
2023/06/09 06:57:07;;;;;;;6.85;5.30;;;;;;;;;;5035706;28;20517;-77
2023/06/09 06:59:34;;;;;;;5.95;4.22;;;;;;;;;;5035780;28;20048;-78
2023/06/09 07:02:01;;;;;;;7.03;4.25;;;;;;;;;;5036327;28;20048;-80
2023/06/09 07:04:29;;;;;;;7.13;4.90;;;;;;;;;;5017820;28;20202;-80
2023/06/09 07:06:55;;;;;;;7.22;4.93;;;;;;;;;;5016131;28;20588;-80
2023/06/09 07:09:22;;;;;;;7.45;5.40;;;;;;;;;;5015589;28;20046;-78
2023/06/09 07:11:49;;;;;;;8.90;5.57;;;;;;;;;;5017108;28;20488;-78
2023/06/09 07:14:15;;;;;;;7.82;5.22;;;;;;;;;;5020308;28;20073;-77
2023/06/09 07:16:42;;;;;;;6.63;5.00;;;;;;;;;;5021737;28;20109;-77
2023/06/09 07:19:09;;;;;;;8.15;5.00;;;;;;;;;;5020814;28;20046;-78
2023/06/09 07:21:37;;;;;;;7.80;5.30;;;;;;;;;;5021575;28;20050;-78
2023/06/09 07:24:04;;;;;;;8.15;5.50;;;;;;;;;;5020271;28;20437;-79
2023/06/09 07:26:31;;;;;;;7.93;5.30;;;;;;;;;;5018749;28;20116;-80
2023/06/09 07:28:58;;;;;;;7.50;5.07;;;;;;;;;;5018427;28;20054;-80
2023/06/09 07:31:24;;;;;;;7.32;5.05;;;;;;;;;;5018518;28;20077;-80
2023/06/09 07:33:51;;;;;;;6.50;4.97;;;;;;;;;;5020959;28;20512;-78
2023/06/09 07:36:19;;;;;;;7.28;5.35;;;;;;;;;;5020828;28;20515;-79
2023/06/09 07:38:47;;;;;;;8.32;5.10;;;;;;;;;;5019887;28;20085;-80
2023/06/09 07:41:14;;;;;;;7.38;5.63;;;;;;;;;;5021223;28;20081;-80
2023/06/09 07:43:40;;;;;;;7.97;4.97;;;;;;;;;;5020274;28;20050;-79
2023/06/09 07:46:10;;;;;;;9.20;6.03;;;;;;;;;;5019593;28;20050;-78
2023/06/09 07:48:37;;;;;;;11.38;6.10;;;;;;;;;;5019448;28;20065;-80
2023/06/09 07:51:04;;;;;;;8.20;5.75;;;;;;;;;;5020138;28;20050;-79
2023/06/09 07:53:31;;;;;;;8.75;5.43;;;;;;;;;;5020052;28;20531;-80
2023/06/09 07:56:00;;;;;;;7.15;4.65;;;;;;;;;;5019656;28;20068;-80
2023/06/09 07:58:26;;;;;;;7.57;4.68;;;;;;;;;;5019316;28;20052;-80
2023/06/09 08:00:53;;;;;;;8.13;4.65;;;;;;;;;;5020542;28;20096;-80
2023/06/09 08:03:20;;;;;;;6.97;4.97;;;;;;;;;;5028465;28;20049;-78
2023/06/09 08:05:47;;;;;;;6.80;4.88;;;;;;;;;;5040102;28;20124;-79
2023/06/09 08:08:15;;;;;;;6.25;4.53;;;;;;;;;;5039412;28;20052;-78
2023/06/09 08:10:41;;;;;;;6.97;4.90;;;;;;;;;;5039174;28;20056;-80
2023/06/09 08:13:13;;;;;;;6.00;4.30;;;;;;;;;;5040066;28;20045;-80
2023/06/09 08:15:40;;;;;;;6.25;4.25;;;;;;;;;;5037936;28;20103;-79
2023/06/09 08:18:06;;;;;;;6.35;4.53;;;;;;;;;;5038212;28;20045;-79
2023/06/09 08:20:33;;;;;;;5.85;3.97;;;;;;;;;;5037128;28;20088;-78
2023/06/09 08:23:00;;;;;;;8.73;4.75;;;;;;;;;;5038337;28;20087;-80
2023/06/09 08:25:26;;;;;;;6.53;4.68;;;;;;;;;;5038380;28;20088;-80
2023/06/09 08:27:53;;;;;;;6.88;5.13;;;;;;;;;;5035895;28;20124;-77
2023/06/09 08:30:21;;;;;;;6.15;4.38;;;;;;;;;;5035830;28;20061;-77
2023/06/09 08:32:49;;;;;;;7.18;4.97;;;;;;;;;;5036150;28;20041;-77
2023/06/09 08:35:15;;;;;;;6.20;4.78;;;;;;;;;;5035842;28;20047;-78
2023/06/09 08:37:42;;;;;;;5.68;4.30;;;;;;;;;;5035870;28;20061;-77
2023/06/09 08:40:09;;;;;;;5.50;4.28;;;;;;;;;;5035846;28;20111;-77
2023/06/09 08:42:36;;;;;;;6.38;4.63;;;;;;;;;;5034890;28;20479;-77
2023/06/09 08:45:05;;;;;;;7.35;5.47;;;;;;;;;;5035747;28;20053;-77
2023/06/09 08:47:34;;;;;;;7.95;5.65;;;;;;;;;;5035496;28;20144;-78
2023/06/09 08:50:02;;;;;;;7.07;5.35;;;;;;;;;;5035488;28;20049;-77
2023/06/09 08:52:30;;;;;;;8.02;6.00;;;;;;;;;;5036602;28;20049;-76
2023/06/09 08:54:57;;;;;;;6.65;5.35;;;;;;;;;;5035990;28;20049;-76
2023/06/09 08:57:25;;;;;;;7.68;5.80;;;;;;;;;;5035467;28;20498;-78
2023/06/09 08:59:53;;;;;;;8.35;5.85;;;;;;;;;;5036932;28;20092;-79
2023/06/09 09:02:19;;;;;;;7.30;5.80;;;;;;;;;;5036317;28;20096;-78
2023/06/09 09:04:49;;;;;;;7.10;5.22;;;;;;;;;;5016433;28;20046;-77
2023/06/09 09:07:16;;;;;;;7.07;5.57;;;;;;;;;;5017501;28;20073;-77
2023/06/09 09:09:42;;;;;;;7.97;5.68;;;;;;;;;;5015581;28;20117;-76
2023/06/09 09:12:12;;;;;;;7.88;6.30;;;;;;;;;;5016488;28;20132;-76
2023/06/09 09:14:40;;;;;;;8.00;6.22;;;;;;;;;;5016419;28;20057;-78
2023/06/09 09:17:09;;;;;;;7.68;5.60;;;;;;;;;;5017422;28;20394;-76
2023/06/09 09:19:37;;;;;;;7.40;5.55;;;;;;;;;;5015410;28;20046;-78
2023/06/09 09:22:08;;;;;;;8.27;6.22;;;;;;;;;;5014508;28;20077;-78
2023/06/09 09:24:36;;;;;;;7.25;5.72;;;;;;;;;;5015782;28;20046;-77
2023/06/09 09:27:04;;;;;;;8.00;5.90;;;;;;;;;;5015884;28;20054;-77
2023/06/09 09:29:40;;;;;;;7.35;6.00;;;;;;;;;;5014197;28;20440;-78
2023/06/09 09:32:07;;;;;;;7.60;5.97;;;;;;;;;;5016899;28;20500;-77
2023/06/09 09:34:33;;;;;;;6.95;4.63;;;;;;;;;;5014550;28;20149;-77
2023/06/09 09:37:01;;;;;;;7.53;5.05;;;;;;;;;;5014040;28;20081;-77
2023/06/09 09:39:29;;;;;;;7.53;5.38;;;;;;;;;;5013569;28;20493;-77
2023/06/09 09:42:04;;;;;;;6.32;5.32;;;;;;;;;;5014320;28;20084;-77
2023/06/09 09:44:36;;;;;;;7.53;5.38;;;;;;;;;;5017262;28;20050;-78
2023/06/09 09:47:05;;;;;;;7.07;5.10;;;;;;;;;;5015298;28;20160;-76
2023/06/09 09:49:31;;;;;;;5.90;4.63;;;;;;;;;;5029857;28;20041;-77
2023/06/09 09:51:58;;;;;;;8.40;5.70;;;;;;;;;;5022801;28;20050;-77
2023/06/09 09:54:28;;;;;;;7.50;5.63;;;;;;;;;;5013655;28;20132;-79
2023/06/09 09:56:55;;;;;;;;;;;;;;;;;;5013986;28;20050;-77
2023/06/09 09:59:22;;;;;;;6.38;4.65;;;;;;;;;;5015629;28;20007;-78
2023/06/09 10:01:50;;;;;;;7.72;5.45;;;;;;;;;;5035751;28;20106;-77
2023/06/09 10:04:20;;;;;;;8.18;5.72;;;;;;;;;;5037100;28;20097;-76
2023/06/09 10:06:47;;;;;;;6.45;5.53;;;;;;;;;;5036256;28;20045;-78
2023/06/09 10:09:14;;;;;;;6.68;4.95;;;;;;;;;;5014723;28;20052;-76
2023/06/09 10:11:42;;;;;;;8.70;5.15;;;;;;;;;;5014558;28;20081;-78
2023/06/09 10:14:10;;;;;;;7.10;5.40;;;;;;;;;;5013993;28;20149;-76
2023/06/09 10:16:37;;;;;;;5.88;4.95;;;;;;;;;;5025950;28;20046;-76
2023/06/09 10:19:04;;;;;;;6.50;5.35;;;;;;;;;;5035861;28;20492;-76
2023/06/09 10:21:31;;;;;;;5.70;4.65;;;;;;;;;;5033018;28;20137;-76
2023/06/09 10:23:59;;;;;;;6.63;4.97;;;;;;;;;;5033468;28;20136;-76
2023/06/09 10:26:26;;;;;;;7.05;5.40;;;;;;;;;;5033658;28;20049;-76
2023/06/09 10:28:54;;;;;;;6.32;4.93;;;;;;;;;;5033755;28;20049;-77
2023/06/09 10:31:23;;;;;;;6.25;4.88;;;;;;;;;;5032756;28;20071;-76
2023/06/09 10:33:50;;;;;;;6.78;4.88;;;;;;;;;;5032274;28;20107;-77
2023/06/09 10:36:17;;;;;;;7.15;5.47;;;;;;;;;;5035215;28;20084;-76
2023/06/09 10:38:47;;;;;;;8.00;5.43;;;;;;;;;;5032460;28;20512;-77
2023/06/09 10:41:16;;;;;;;;;;;;;;;;;;5033058;28;20124;-77
2023/06/09 10:44:09;;;;;;;6.18;4.68;;;;;;;;;;5032429;28;19998;-77
2023/06/09 10:46:43;;;;;;;6.10;4.68;;;;;;;;;;5032927;28;20094;-77
2023/06/09 10:49:40;;;;;;;6.53;4.93;;;;;;;;;;5032451;28;20487;-77
2023/06/09 10:52:08;;;;;;;6.47;5.53;;;;;;;;;;5032437;28;20124;-78
2023/06/09 10:54:36;;;;;;;7.53;5.20;;;;;;;;;;5032213;28;20056;-81
2023/06/09 10:57:05;;;;;;;6.03;5.10;;;;;;;;;;5032439;28;20046;-78
2023/06/09 11:00:11;;;;;;;5.75;4.72;;;;;;;;;;5032326;28;20463;-77
2023/06/09 11:02:37;;;;;;;5.85;3.97;;;;;;;;;;5033053;28;20077;-77
2023/06/09 11:05:05;;;;;;;6.07;3.92;;;;;;;;;;5031994;28;20517;-78
2023/06/09 11:07:39;;;;;;;7.07;4.90;;;;;;;;;;5031750;28;20132;-78
2023/06/09 11:10:37;;;;;;;5.55;3.90;;;;;;;;;;5032777;28;20053;-78
2023/06/09 11:13:40;;;;;;;6.43;3.95;;;;;;;;;;5032512;28;20443;-77
2023/06/09 11:16:08;;;;;;;8.77;4.85;;;;;;;;;;5032209;28;20055;-77
2023/06/09 11:18:35;;;;;;;5.10;3.60;;;;;;;;;;5032185;28;20132;-78
2023/06/09 11:21:14;;;;;;;5.22;3.40;;;;;;;;;;5032377;28;20536;-77
2023/06/09 11:24:04;;;;;;;5.07;3.45;;;;;;;;;;5031825;28;20054;-77
2023/06/09 11:26:32;;;;;;;4.78;3.38;;;;;;;;;;5032401;28;20139;-77
2023/06/09 11:29:00;;;;;;;5.05;3.40;;;;;;;;;;5032449;28;20128;-78
2023/06/09 11:31:29;;;;;;;5.25;3.33;;;;;;;;;;5031936;28;20401;-77
2023/06/09 11:33:56;;;;;;;4.50;2.70;;;;;;;;;;5032208;28;20492;-77
2023/06/09 11:36:27;;;;;;;4.22;2.92;;;;;;;;;;5032745;28;20053;-77
2023/06/09 11:39:00;;;;;;;4.72;3.83;;;;;;;;;;5033225;28;20132;-77
2023/06/09 11:41:27;;;;;;;5.35;4.50;;;;;;;;;;5034245;28;20052;-77
2023/06/09 11:43:56;;;;;;;5.32;4.30;;;;;;;;;;5033743;28;20049;-77
2023/06/09 11:46:23;;;;;;;6.53;4.65;;;;;;;;;;5034153;28;20046;-77
2023/06/09 11:49:09;;;;;;;6.32;4.47;;;;;;;;;;5032289;28;20132;-77
2023/06/09 11:51:54;;;;;;;5.95;4.90;;;;;;;;;;5032457;28;20123;-78
2023/06/09 11:54:21;;;;;;;5.68;4.32;;;;;;;;;;5032649;28;20072;-78
2023/06/09 11:56:49;;;;;;;5.93;4.93;;;;;;;;;;5032144;28;20112;-78
2023/06/09 11:59:20;;;;;;;5.53;4.70;;;;;;;;;;5031824;28;20045;-77
2023/06/09 12:01:48;;;;;;;7.50;4.53;;;;;;;;;;5032059;28;20049;-77
2023/06/09 12:04:16;;;;;;;6.50;4.65;;;;;;;;;;5031853;28;20504;-77
2023/06/09 12:06:46;;;;;;;6.50;4.50;;;;;;;;;;5031653;28;20132;-77
2023/06/09 12:09:23;;;;;;;6.10;4.28;;;;;;;;;;5031649;28;20054;-78
2023/06/09 12:11:54;;;;;;;5.90;4.45;;;;;;;;;;5031205;28;20067;-78
2023/06/09 12:14:21;;;;;;;5.90;4.57;;;;;;;;;;5031394;28;20132;-78
2023/06/09 12:16:49;;;;;;;6.65;5.00;;;;;;;;;;5032100;28;20046;-77
2023/06/09 12:19:18;;;;;;;5.40;4.45;;;;;;;;;;5035484;28;20049;-78
2023/06/09 12:21:47;;;;;;;5.43;4.20;;;;;;;;;;5036677;28;20077;-77
2023/06/09 12:24:14;;;;;;;5.40;4.18;;;;;;;;;;5035578;28;20050;-78
2023/06/09 12:26:40;;;;;;;5.72;4.72;;;;;;;;;;5035503;28;20060;-77
2023/06/09 12:29:08;;;;;;;6.05;5.20;;;;;;;;;;5035847;28;20076;-77
2023/06/09 12:31:35;;;;;;;7.35;4.85;;;;;;;;;;5035471;28;20049;-78
2023/06/09 12:34:02;;;;;;;6.03;4.35;;;;;;;;;;5036588;28;20048;-77
2023/06/09 12:36:39;;;;;;;6.43;4.38;;;;;;;;;;5035437;28;20046;-78
2023/06/09 12:39:17;;;;;;;6.63;5.35;;;;;;;;;;5033973;28;20041;-77
2023/06/09 12:41:43;;;;;;;6.32;4.90;;;;;;;;;;5034312;28;20419;-77
2023/06/09 12:44:19;;;;;;;6.50;4.57;;;;;;;;;;5034470;28;20113;-78
2023/06/09 12:46:47;;;;;;;7.55;5.70;;;;;;;;;;5034310;28;20053;-78
2023/06/09 12:49:14;;;;;;;5.95;4.40;;;;;;;;;;5034913;28;20045;-78
2023/06/09 12:51:43;;;;;;;6.35;5.10;;;;;;;;;;5034669;28;20049;-78
2023/06/09 12:54:12;;;;;;;5.85;4.72;;;;;;;;;;5036778;28;20049;-79
2023/06/09 12:56:39;;;;;;;10.32;8.40;;;;;;;;;;5038856;28;20477;-78
2023/06/09 12:59:06;;;;;;;8.00;6.18;;;;;;;;;;5037910;28;20061;-78
2023/06/09 13:01:33;;;;;;;6.07;5.47;;;;;;;;;;5038374;28;20046;-78
2023/06/09 13:04:00;;;;;;;6.10;5.50;;;;;;;;;;5027200;28;20046;-78
2023/06/09 13:06:26;;;;;;;6.85;5.38;;;;;;;;;;5021060;28;20492;-78
2023/06/09 13:08:55;;;;;;;8.77;5.88;;;;;;;;;;5018903;28;20112;-78
2023/06/09 13:11:22;;;;;;;7.53;5.53;;;;;;;;;;5018598;28;20050;-77
2023/06/09 13:13:48;;;;;;;7.97;5.57;;;;;;;;;;5018102;28;20584;-77
2023/06/09 13:16:15;;;;;;;6.43;5.57;;;;;;;;;;5018490;28;20057;-78
2023/06/09 13:18:42;;;;;;;6.60;5.43;;;;;;;;;;5017940;28;20052;-78
2023/06/09 13:21:08;;;;;;;6.38;5.05;;;;;;;;;;5018523;28;20113;-78
2023/06/09 13:23:35;;;;;;;6.85;5.57;;;;;;;;;;5019018;28;20042;-78
2023/06/09 13:26:03;;;;;;;7.13;5.45;;;;;;;;;;5019229;28;20416;-79
2023/06/09 13:28:30;;;;;;;6.63;5.78;;;;;;;;;;5019269;28;20050;-78
2023/06/09 13:30:57;;;;;;;6.70;5.78;;;;;;;;;;5031208;28;20113;-78
2023/06/09 13:33:24;;;;;;;8.02;5.45;;;;;;;;;;5023340;28;20092;-78
2023/06/09 13:35:52;;;;;;;6.82;5.55;;;;;;;;;;5020421;28;20129;-77
2023/06/09 13:38:19;;;;;;;6.13;5.13;;;;;;;;;;5020195;28;20049;-78
2023/06/09 13:40:47;;;;;;;6.55;5.00;;;;;;;;;;5018767;28;20050;-78
2023/06/09 13:43:16;;;;;;;6.38;5.10;;;;;;;;;;5018430;28;20042;-78
2023/06/09 13:45:43;;;;;;;8.30;5.60;;;;;;;;;;5035161;28;20052;-79
2023/06/09 13:48:11;;;;;;;6.05;4.75;;;;;;;;;;5038671;28;20061;-78
2023/06/09 13:50:38;;;;;;;6.53;5.45;;;;;;;;;;5037823;28;20053;-79
2023/06/09 13:53:05;;;;;;;5.32;4.70;;;;;;;;;;5038143;28;20132;-78
2023/06/09 13:55:31;;;;;;;7.22;4.85;;;;;;;;;;5037885;28;20053;-78
2023/06/09 13:57:58;;;;;;;5.90;5.05;;;;;;;;;;5037559;28;20055;-79
2023/06/09 14:00:26;;;;;;;5.75;4.40;;;;;;;;;;5037139;28;20091;-78
2023/06/09 14:02:53;;;;;;;5.63;5.13;;;;;;;;;;5037566;28;20057;-78
2023/06/09 14:05:23;;;;;;;5.90;5.28;;;;;;;;;;5036973;28;20049;-78
2023/06/09 14:07:50;;;;;;;7.05;5.57;;;;;;;;;;5037670;28;20045;-78
2023/06/09 14:10:16;;;;;;;7.03;6.32;;;;;;;;;;5037533;28;20049;-79
2023/06/09 14:12:47;;;;;;;6.15;5.43;;;;;;;;;;5037631;28;20508;-78
2023/06/09 14:15:15;;;;;;;6.43;5.18;;;;;;;;;;5036833;28;20056;-79
2023/06/09 14:17:49;;;;;;;6.00;5.40;;;;;;;;;;5037168;28;20102;-78
2023/06/09 14:20:19;;;;;;;5.57;4.80;;;;;;;;;;5036973;28;20057;-78
2023/06/09 14:22:45;;;;;;;5.90;4.75;;;;;;;;;;5037330;28;20050;-78
2023/06/09 14:25:18;;;;;;;5.47;4.93;;;;;;;;;;5037304;28;20045;-79
2023/06/09 14:27:45;;;;;;;6.15;5.38;;;;;;;;;;5037214;28;20087;-79
2023/06/09 14:30:14;;;;;;;6.95;6.03;;;;;;;;;;5037086;28;20103;-79
2023/06/09 14:32:41;;;;;;;7.18;5.72;;;;;;;;;;5036693;28;20053;-79
2023/06/09 14:35:09;;;;;;;7.38;5.70;;;;;;;;;;5036874;28;20095;-78
2023/06/09 14:37:36;;;;;;;6.03;4.97;;;;;;;;;;5037220;28;20381;-79
2023/06/09 14:40:03;;;;;;;7.18;4.95;;;;;;;;;;5035956;28;20153;-80
2023/06/09 14:42:29;;;;;;;6.15;5.55;;;;;;;;;;5036087;28;20052;-79
2023/06/09 14:44:56;;;;;;;6.13;5.30;;;;;;;;;;5034600;28;20053;-77
2023/06/09 14:47:22;;;;;;;8.38;5.40;;;;;;;;;;5032704;28;20067;-77
2023/06/09 14:49:49;;;;;;;6.15;5.55;;;;;;;;;;5033191;28;20046;-77
2023/06/09 14:52:17;;;;;;;5.55;4.75;;;;;;;;;;5035965;28;20565;-78
2023/06/09 14:54:44;;;;;;;5.85;4.97;;;;;;;;;;5033561;28;20045;-77